createdAt,value
2019-01-31T00:00:40.832Z,65
2019-01-31T00:01:40.734Z,65.4
2019-01-31T00:02:41.072Z,65.4
2019-01-31T00:03:40.974Z,65.3
2019-01-31T00:04:41.216Z,65.3
2019-01-31T00:05:41.116Z,65.6
2019-01-31T00:06:40.998Z,65.7
2019-01-31T00:07:40.875Z,65.8
2019-01-31T00:08:46.946Z,65.5
2019-01-31T00:09:46.826Z,65.3
2019-01-31T00:10:46.734Z,64.9
2019-01-31T00:11:46.638Z,64.7
2019-01-31T00:12:46.945Z,64.6
2019-01-31T00:13:46.818Z,64.3
2019-01-31T00:14:46.921Z,63.5
2019-01-31T00:15:46.840Z,64
2019-01-31T00:16:46.747Z,64.1
2019-01-31T00:17:46.624Z,64.2
2019-01-31T00:18:46.744Z,64.1
2019-01-31T00:19:46.627Z,63.7
2019-01-31T00:20:46.532Z,64
2019-01-31T00:21:46.430Z,64.2
2019-01-31T00:22:46.753Z,64.3
2019-01-31T00:23:46.648Z,64.3
2019-01-31T00:24:46.586Z,64.4
2019-01-31T00:25:46.728Z,64.2
2019-01-31T00:26:46.619Z,64
2019-01-31T00:27:46.490Z,63.8
2019-01-31T00:28:46.600Z,64.1
2019-01-31T00:29:46.491Z,64.3
2019-01-31T00:30:46.370Z,64
2019-01-31T00:31:46.970Z,63.8
2019-01-31T00:32:47.380Z,63.9
2019-01-31T00:33:47.272Z,63.6
2019-01-31T00:34:47.407Z,63.7
2019-01-31T00:35:47.300Z,63.3
2019-01-31T00:36:47.246Z,63.2
2019-01-31T00:37:47.166Z,63.3
2019-01-31T00:38:57.767Z,63.4
2019-01-31T00:39:57.752Z,63.4
2019-01-31T00:40:57.662Z,63.5
2019-01-31T00:41:57.662Z,63.8
2019-01-31T00:42:57.944Z,64.2
2019-01-31T00:43:58.062Z,64.7
2019-01-31T00:44:57.939Z,65.2
2019-01-31T00:45:57.814Z,65.2
2019-01-31T00:46:57.702Z,65.4
2019-01-31T00:47:57.630Z,65.9
2019-01-31T00:48:57.508Z,65.9
2019-01-31T00:49:57.570Z,66.3
2019-01-31T00:50:57.924Z,66.3
2019-01-31T00:51:57.814Z,66.7
2019-01-31T00:52:58.168Z,66.8
2019-01-31T00:53:58.082Z,66.9
2019-01-31T00:54:57.975Z,67.2
2019-01-31T00:55:57.984Z,67.4
2019-01-31T00:56:57.900Z,67.6
2019-01-31T00:57:57.814Z,67.4
2019-01-31T00:58:57.702Z,67.1
2019-01-31T00:59:57.597Z,67.2
2019-01-31T01:00:57.500Z,67.3
2019-01-31T01:01:57.387Z,67.3
2019-01-31T01:02:57.725Z,67.4
2019-01-31T01:03:57.594Z,67.6
2019-01-31T01:04:57.497Z,67.6
2019-01-31T01:05:57.413Z,67.4
2019-01-31T01:06:57.537Z,67.4
2019-01-31T01:07:57.447Z,67.3
2019-01-31T01:09:08.702Z,67.3
2019-01-31T01:10:08.584Z,67
2019-01-31T01:11:08.480Z,66.9
2019-01-31T01:12:08.427Z,67.2
2019-01-31T01:13:08.806Z,67.1
2019-01-31T01:14:08.680Z,67.3
2019-01-31T01:15:08.550Z,67.4
2019-01-31T01:16:08.430Z,67.6
2019-01-31T01:17:09.007Z,67.8
2019-01-31T01:18:08.906Z,68.1
2019-01-31T01:19:08.808Z,68.3
2019-01-31T01:20:08.926Z,68.6
2019-01-31T01:21:08.843Z,68.9
2019-01-31T01:22:08.727Z,69.1
2019-01-31T01:23:09.036Z,69.5
2019-01-31T01:24:08.943Z,69.6
2019-01-31T01:25:08.843Z,70
2019-01-31T01:26:08.740Z,70.3
2019-01-31T01:27:08.645Z,70.6
2019-01-31T01:28:08.538Z,70.7
2019-01-31T01:29:09.120Z,70.5
2019-01-31T01:30:09.155Z,70.8
2019-01-31T01:31:09.075Z,70.8
2019-01-31T01:32:09.003Z,70.9
2019-01-31T01:33:09.331Z,71
2019-01-31T01:34:09.442Z,71.1
2019-01-31T01:35:09.358Z,70.9
2019-01-31T01:36:09.240Z,71.1
2019-01-31T01:37:09.851Z,71.2
2019-01-31T01:38:09.750Z,71.3
2019-01-31T01:39:20.080Z,71.4
2019-01-31T01:40:20.002Z,71.6
2019-01-31T01:41:19.898Z,71.8
2019-01-31T01:42:19.784Z,72
2019-01-31T01:43:20.419Z,72.5
2019-01-31T01:44:20.292Z,72.7
2019-01-31T01:45:20.177Z,73
2019-01-31T01:46:20.330Z,72.8
2019-01-31T01:47:20.221Z,72.6
2019-01-31T01:48:20.107Z,72.5
2019-01-31T01:49:20.486Z,73
2019-01-31T01:50:20.474Z,73.1
2019-01-31T01:51:20.392Z,73
2019-01-31T01:52:20.280Z,72.6
2019-01-31T01:53:21.300Z,72.5
2019-01-31T01:54:21.195Z,72.4
2019-01-31T01:55:21.339Z,72.3
2019-01-31T01:56:21.243Z,72.1
2019-01-31T01:57:21.192Z,72.1
2019-01-31T01:58:21.131Z,72
2019-01-31T01:59:21.042Z,72
2019-01-31T02:00:20.921Z,72
2019-01-31T02:01:20.807Z,71.9
2019-01-31T02:02:20.707Z,71.9
2019-01-31T02:03:21.325Z,72.9
2019-01-31T02:04:21.228Z,72.1
2019-01-31T02:05:21.107Z,71.9
2019-01-31T02:06:21.450Z,72
2019-01-31T02:07:21.401Z,72.1
2019-01-31T02:08:21.287Z,72.2
2019-01-31T02:09:31.092Z,72.4
2019-01-31T02:10:31.341Z,72.8
2019-01-31T02:11:31.225Z,72.5
2019-01-31T02:12:31.107Z,72.4
2019-01-31T02:13:31.432Z,72.5
2019-01-31T02:14:31.333Z,72.7
2019-01-31T02:15:31.242Z,72
2019-01-31T02:16:31.496Z,72.7
2019-01-31T02:17:31.392Z,72.9
2019-01-31T02:18:31.277Z,72.7
2019-01-31T02:19:31.994Z,72.7
2019-01-31T02:20:32.003Z,72.2
2019-01-31T02:21:31.931Z,71.6
2019-01-31T02:22:31.850Z,71
2019-01-31T02:23:32.153Z,70.9
2019-01-31T02:24:32.066Z,70.5
2019-01-31T02:25:31.963Z,70.5
2019-01-31T02:26:31.856Z,70.1
2019-01-31T02:27:31.758Z,70.1
2019-01-31T02:28:31.690Z,70
2019-01-31T02:29:31.813Z,69.5
2019-01-31T02:30:31.734Z,69.2
2019-01-31T02:31:31.628Z,69.2
2019-01-31T02:32:31.700Z,69.4
2019-01-31T02:33:32.067Z,68.9
2019-01-31T02:34:31.962Z,69.6
2019-01-31T02:35:32.883Z,68.9
2019-01-31T02:36:32.769Z,69.6
2019-01-31T02:37:32.651Z,69.3
2019-01-31T02:38:33.231Z,69.1
2019-01-31T02:39:44.006Z,69.1
2019-01-31T02:40:43.889Z,68.9
2019-01-31T02:41:43.787Z,69
2019-01-31T02:42:43.720Z,69.3
2019-01-31T02:43:44.292Z,69.7
2019-01-31T02:44:44.187Z,69.7
2019-01-31T02:45:44.089Z,69.7
2019-01-31T02:46:44.002Z,69.6
2019-01-31T02:47:44.026Z,69.9
2019-01-31T02:48:43.981Z,69.7
2019-01-31T02:49:43.856Z,70
2019-01-31T02:50:43.747Z,70.2
2019-01-31T02:51:43.642Z,69.5
2019-01-31T02:52:43.645Z,69.3
2019-01-31T02:53:44.242Z,69.3
2019-01-31T02:54:44.167Z,69.3
2019-01-31T02:55:44.271Z,69.3
2019-01-31T02:56:44.161Z,69.4
2019-01-31T02:57:44.059Z,69.3
2019-01-31T02:58:44.700Z,68.1
2019-01-31T02:59:44.599Z,68.5
2019-01-31T03:00:44.489Z,68.3
2019-01-31T03:01:44.414Z,68.1
2019-01-31T03:02:44.311Z,68.2
2019-01-31T03:03:44.615Z,68
2019-01-31T03:04:44.759Z,67.9
2019-01-31T03:05:44.651Z,67.8
2019-01-31T03:06:44.543Z,67.7
2019-01-31T03:07:44.456Z,67.2
2019-01-31T03:08:44.381Z,67.2
2019-01-31T03:09:55.690Z,67.3
2019-01-31T03:10:56.271Z,67.4
2019-01-31T03:11:56.209Z,67.4
2019-01-31T03:12:56.109Z,67.4
2019-01-31T03:13:56.682Z,67.5
2019-01-31T03:15:10.608Z,67.9
2019-01-31T03:16:10.565Z,68.1
2019-01-31T03:17:11.129Z,68.1
2019-01-31T03:18:11.007Z,68
2019-01-31T03:19:10.909Z,68.9
2019-01-31T03:20:11.060Z,68.3
2019-01-31T03:21:10.993Z,68.3
2019-01-31T03:22:10.877Z,68.5
2019-01-31T03:23:11.465Z,68.7
2019-01-31T03:24:11.759Z,68.9
2019-01-31T03:25:11.636Z,69
2019-01-31T03:26:11.589Z,69.2
2019-01-31T03:27:11.481Z,69.4
2019-01-31T03:28:11.413Z,69.5
2019-01-31T03:29:11.339Z,69.6
2019-01-31T03:30:11.934Z,69.6
2019-01-31T03:31:11.899Z,69.7
2019-01-31T03:32:12.082Z,69.8
2019-01-31T03:33:12.744Z,69.9
2019-01-31T03:34:13.091Z,70
2019-01-31T03:35:12.993Z,70.1
2019-01-31T03:36:12.879Z,70.2
2019-01-31T03:37:12.779Z,70.3
2019-01-31T03:38:12.674Z,70.1
2019-01-31T03:39:12.789Z,69.9
2019-01-31T03:40:12.803Z,69.8
2019-01-31T03:41:12.697Z,69.6
2019-01-31T03:42:12.841Z,69.4
2019-01-31T03:43:12.715Z,69.3
2019-01-31T03:44:13.020Z,69.3
2019-01-31T03:45:12.903Z,69.3
2019-01-31T03:46:12.805Z,69.2
2019-01-31T03:47:12.747Z,69.2
2019-01-31T03:48:12.646Z,69.2
2019-01-31T03:49:12.629Z,69.2
2019-01-31T03:50:12.532Z,69.2
2019-01-31T03:51:12.482Z,69.2
2019-01-31T03:52:12.445Z,69.3
2019-01-31T03:53:12.350Z,69.6
2019-01-31T03:54:12.865Z,69.8
2019-01-31T03:55:12.915Z,70
2019-01-31T03:56:16.206Z,69.9
2019-01-31T03:57:16.425Z,70.1
2019-01-31T03:58:16.329Z,70.2
2019-01-31T03:59:16.229Z,70.3
2019-01-31T04:00:16.135Z,70.5
2019-01-31T04:01:16.019Z,70.4
2019-01-31T04:02:15.901Z,70.3
2019-01-31T04:03:15.799Z,70.5
2019-01-31T04:04:16.499Z,70.5
2019-01-31T04:05:16.378Z,70.5
2019-01-31T04:06:16.505Z,70.3
2019-01-31T04:07:16.399Z,70.5
2019-01-31T04:08:16.328Z,69.9
2019-01-31T04:09:16.271Z,72
2019-01-31T04:10:19.910Z,70.4
2019-01-31T04:11:19.817Z,69.8
2019-01-31T04:12:19.727Z,70.3
2019-01-31T04:13:19.755Z,70.2
2019-01-31T04:14:20.117Z,70
2019-01-31T04:15:20.036Z,69.5
2019-01-31T04:16:20.237Z,69.2
2019-01-31T04:17:20.147Z,69.1
2019-01-31T04:18:20.047Z,69
2019-01-31T04:19:20.168Z,69.2
2019-01-31T04:20:20.181Z,69.5
2019-01-31T04:21:20.119Z,69.8
2019-01-31T04:22:20.019Z,69.6
2019-01-31T04:23:20.205Z,69.8
2019-01-31T04:24:20.769Z,70
2019-01-31T04:25:20.684Z,70
2019-01-31T04:26:20.585Z,70.2
2019-01-31T04:27:20.472Z,70.3
2019-01-31T04:28:20.383Z,70.3
2019-01-31T04:29:20.269Z,70.5
2019-01-31T04:30:20.154Z,70.5
2019-01-31T04:31:20.067Z,70.5
2019-01-31T04:32:19.971Z,70.6
2019-01-31T04:33:19.913Z,70.7
2019-01-31T04:34:20.263Z,70.7
2019-01-31T04:35:20.163Z,71
2019-01-31T04:36:20.068Z,71.2
2019-01-31T04:37:19.962Z,71.3
2019-01-31T04:38:20.969Z,71.5
2019-01-31T04:39:20.868Z,71.1
2019-01-31T04:40:32.303Z,71.6
2019-01-31T04:41:32.190Z,70.3
2019-01-31T04:42:32.088Z,70
2019-01-31T04:43:32.013Z,70.3
2019-01-31T04:44:32.340Z,71.3
2019-01-31T04:45:32.226Z,70
2019-01-31T04:46:32.112Z,69.9
2019-01-31T04:47:32.010Z,69.8
2019-01-31T04:48:31.923Z,70.1
2019-01-31T04:49:31.859Z,70
2019-01-31T04:50:31.898Z,70.1
2019-01-31T04:51:31.789Z,70.1
2019-01-31T04:52:31.684Z,70.2
2019-01-31T04:53:31.586Z,70.1
2019-01-31T04:54:31.930Z,70.6
2019-01-31T04:55:31.840Z,70.8
2019-01-31T04:56:31.716Z,71.1
2019-01-31T04:57:31.619Z,71.4
2019-01-31T04:58:31.556Z,71.1
2019-01-31T04:59:31.459Z,71
2019-01-31T05:00:31.360Z,71
2019-01-31T05:01:31.279Z,71.3
2019-01-31T05:02:31.170Z,71.5
2019-01-31T05:03:31.186Z,71.5
2019-01-31T05:04:31.517Z,71.8
2019-01-31T05:05:31.412Z,72
2019-01-31T05:06:31.306Z,71.6
2019-01-31T05:07:31.215Z,71.3
2019-01-31T05:08:31.697Z,71.2
2019-01-31T05:09:31.588Z,71.1
2019-01-31T05:10:44.021Z,71.1
2019-01-31T05:11:43.934Z,70.5
2019-01-31T05:12:43.844Z,71.1
2019-01-31T05:13:43.770Z,70.9
2019-01-31T05:14:44.154Z,70.5
2019-01-31T05:15:44.066Z,70.3
2019-01-31T05:16:43.960Z,70
2019-01-31T05:17:43.950Z,69.8
2019-01-31T05:18:43.842Z,69.8
2019-01-31T05:19:43.727Z,69.6
2019-01-31T05:20:43.630Z,69.5
2019-01-31T05:21:43.509Z,69.4
2019-01-31T05:22:43.395Z,69.4
2019-01-31T05:23:43.318Z,69.5
2019-01-31T05:24:43.626Z,69.4
2019-01-31T05:25:43.524Z,69.4
2019-01-31T05:26:43.570Z,69.4
2019-01-31T05:27:43.464Z,69.3
2019-01-31T05:28:43.353Z,69.9
2019-01-31T05:29:43.230Z,70.1
2019-01-31T05:30:43.136Z,70
2019-01-31T05:31:43.057Z,70
2019-01-31T05:32:42.967Z,70.4
2019-01-31T05:33:42.888Z,71.1
2019-01-31T05:34:43.232Z,71.2
2019-01-31T05:35:43.216Z,70.9
2019-01-31T05:36:43.104Z,71
2019-01-31T05:37:43.004Z,71.3
2019-01-31T05:38:42.986Z,71.6
2019-01-31T05:39:42.884Z,71.7
2019-01-31T05:40:56.196Z,71.7
2019-01-31T05:41:56.138Z,71.5
2019-01-31T05:42:56.018Z,71.8
2019-01-31T05:43:56.042Z,72.3
2019-01-31T05:44:56.374Z,72
2019-01-31T05:45:56.276Z,72
2019-01-31T05:46:56.172Z,72
2019-01-31T05:47:56.060Z,71.5
2019-01-31T05:48:55.962Z,72.4
2019-01-31T05:49:55.866Z,73.2
2019-01-31T05:50:55.740Z,74.4
2019-01-31T05:51:55.620Z,74.3
2019-01-31T05:52:55.538Z,74.1
2019-01-31T05:53:55.442Z,74.3
2019-01-31T05:54:55.774Z,74.3
2019-01-31T05:55:55.674Z,74.3
2019-01-31T05:56:55.565Z,74.7
2019-01-31T05:57:55.460Z,75.6
2019-01-31T05:58:55.497Z,75.2
2019-01-31T05:59:55.383Z,75.1
2019-01-31T06:00:55.319Z,75.1
2019-01-31T06:01:55.209Z,75.1
2019-01-31T06:02:55.101Z,75.1
2019-01-31T06:03:55.012Z,75
2019-01-31T06:04:55.359Z,75
2019-01-31T06:05:55.314Z,75.1
2019-01-31T06:06:55.210Z,75.1
2019-01-31T06:07:55.098Z,75.1
2019-01-31T06:08:54.978Z,74.3
2019-01-31T06:09:54.888Z,74.2
2019-01-31T06:10:54.800Z,74.3
2019-01-31T06:12:07.766Z,74.6
2019-01-31T06:13:07.659Z,74.4
2019-01-31T06:14:07.531Z,74.3
2019-01-31T06:15:07.836Z,74.3
2019-01-31T06:16:07.750Z,74.3
2019-01-31T06:17:07.640Z,74.1
2019-01-31T06:18:07.590Z,74.1
2019-01-31T06:19:07.531Z,74.2
2019-01-31T06:20:07.420Z,74.4
2019-01-31T06:21:07.350Z,74.7
2019-01-31T06:22:07.294Z,74.6
2019-01-31T06:23:07.187Z,74.4
2019-01-31T06:24:07.086Z,74.7
2019-01-31T06:25:07.499Z,75.1
2019-01-31T06:26:07.401Z,75.8
2019-01-31T06:27:07.317Z,76.7
2019-01-31T06:28:07.216Z,77
2019-01-31T06:29:07.130Z,77.2
2019-01-31T06:30:07.031Z,77.3
2019-01-31T06:31:06.931Z,77.5
2019-01-31T06:32:09.888Z,77.4
2019-01-31T06:33:09.821Z,77.2
2019-01-31T06:34:09.749Z,77.5
2019-01-31T06:35:10.102Z,77.4
2019-01-31T06:36:10.006Z,77.5
2019-01-31T06:37:09.938Z,77.2
2019-01-31T06:38:09.843Z,77.1
2019-01-31T06:39:09.730Z,77
2019-01-31T06:40:09.635Z,76.5
2019-01-31T06:41:19.516Z,76.4
2019-01-31T06:42:19.414Z,76.5
2019-01-31T06:43:19.313Z,76.1
2019-01-31T06:44:19.226Z,75.7
2019-01-31T06:45:19.533Z,76
2019-01-31T06:46:19.458Z,76.1
2019-01-31T06:47:19.359Z,76.3
2019-01-31T06:48:19.258Z,76.1
2019-01-31T06:49:19.151Z,76.5
2019-01-31T06:50:19.055Z,76.4
2019-01-31T06:51:18.962Z,74.8
2019-01-31T06:52:18.908Z,74.5
2019-01-31T06:53:18.812Z,73.6
2019-01-31T06:55:18.934Z,73.3
2019-01-31T06:56:18.855Z,74.1
2019-01-31T06:57:18.772Z,74.3
2019-01-31T06:58:18.673Z,74.1
2019-01-31T06:59:18.578Z,73.9
2019-01-31T07:00:18.489Z,73.8
2019-01-31T07:01:18.395Z,73.7
2019-01-31T07:02:18.324Z,74.2
2019-01-31T07:03:18.223Z,74.6
2019-01-31T07:04:18.121Z,75.2
2019-01-31T07:05:18.468Z,75.2
2019-01-31T07:06:18.366Z,75.2
2019-01-31T07:07:18.292Z,74.9
2019-01-31T07:08:18.262Z,74.9
2019-01-31T07:09:18.145Z,75.2
2019-01-31T07:10:18.050Z,75.6
2019-01-31T07:11:30.445Z,75.9
2019-01-31T07:12:30.379Z,76.3
2019-01-31T07:13:30.366Z,76.3
2019-01-31T07:14:30.247Z,76.5
2019-01-31T07:15:30.606Z,76.5
2019-01-31T07:16:30.511Z,76.4
2019-01-31T07:17:30.419Z,76.2
2019-01-31T07:18:30.319Z,76.8
2019-01-31T07:19:30.358Z,75.9
2019-01-31T07:20:30.259Z,75.6
2019-01-31T07:21:30.150Z,75.5
2019-01-31T07:22:30.059Z,75.7
2019-01-31T07:23:29.956Z,75.9
2019-01-31T07:24:29.849Z,75.9
2019-01-31T07:25:30.296Z,76
2019-01-31T07:26:30.194Z,75.9
2019-01-31T07:27:30.221Z,75.9
2019-01-31T07:28:30.113Z,76
2019-01-31T07:29:29.983Z,75.9
2019-01-31T07:30:29.885Z,75.6
2019-01-31T07:31:29.795Z,75.5
2019-01-31T07:32:29.744Z,75.6
2019-01-31T07:33:29.659Z,75.8
2019-01-31T07:34:29.610Z,75.9
2019-01-31T07:35:30.153Z,76
2019-01-31T07:36:30.055Z,76.1
2019-01-31T07:37:29.974Z,75.9
2019-01-31T07:38:30.004Z,75.8
2019-01-31T07:39:29.886Z,75.5
2019-01-31T07:40:29.764Z,75.5
2019-01-31T07:41:41.934Z,75.7
2019-01-31T07:42:41.841Z,75.7
2019-01-31T07:43:41.745Z,75.5
2019-01-31T07:44:41.748Z,76.1
2019-01-31T07:45:42.036Z,75.3
2019-01-31T07:46:41.929Z,75.1
2019-01-31T07:47:41.853Z,74.7
2019-01-31T07:48:41.764Z,74.7
2019-01-31T07:49:41.781Z,74.2
2019-01-31T07:50:41.653Z,73.8
2019-01-31T07:51:41.537Z,73.4
2019-01-31T07:52:41.444Z,73.2
2019-01-31T07:53:41.337Z,72.6
2019-01-31T07:54:41.259Z,72.1
2019-01-31T07:55:41.565Z,72.6
2019-01-31T07:56:41.571Z,72.1
2019-01-31T07:57:41.491Z,71.8
2019-01-31T07:58:41.661Z,71.6
2019-01-31T07:59:41.555Z,71.1
2019-01-31T08:00:41.480Z,71
2019-01-31T08:01:41.668Z,71
2019-01-31T08:02:41.547Z,70.5
2019-01-31T08:03:41.557Z,70.2
2019-01-31T08:04:41.459Z,69.8
2019-01-31T08:05:41.771Z,69.1
2019-01-31T08:06:41.685Z,68.5
2019-01-31T08:07:41.585Z,68.7
2019-01-31T08:08:41.477Z,68.9
2019-01-31T08:09:41.369Z,68.3
2019-01-31T08:10:41.247Z,68.5
2019-01-31T08:11:53.507Z,68.1
2019-01-31T08:12:53.409Z,67.4
2019-01-31T08:13:53.299Z,67.1
2019-01-31T08:14:53.191Z,67
2019-01-31T08:15:53.491Z,67.2
2019-01-31T08:16:53.405Z,67.4
2019-01-31T08:17:53.391Z,67.6
2019-01-31T08:18:53.335Z,67
2019-01-31T08:19:53.239Z,66.6
2019-01-31T08:20:53.133Z,66.7
2019-01-31T08:21:53.003Z,65.5
2019-01-31T08:22:52.899Z,65.4
2019-01-31T08:23:52.783Z,66.5
2019-01-31T08:24:52.691Z,65.8
2019-01-31T08:25:53.026Z,66.3
2019-01-31T08:26:56.115Z,65.1
2019-01-31T08:27:56.034Z,64.9
2019-01-31T08:28:55.941Z,65.6
2019-01-31T08:29:55.849Z,64.4
2019-01-31T08:30:55.730Z,65.3
2019-01-31T08:31:55.616Z,64
2019-01-31T08:32:55.493Z,63.1
2019-01-31T08:33:55.377Z,64
2019-01-31T08:34:55.278Z,64.1
2019-01-31T08:35:55.622Z,64.3
2019-01-31T08:36:55.519Z,63.4
2019-01-31T08:37:55.405Z,62.4
2019-01-31T08:38:55.300Z,61.8
2019-01-31T08:39:55.207Z,61.4
2019-01-31T08:40:55.114Z,62.9
2019-01-31T08:42:04.614Z,63.3
2019-01-31T08:43:04.506Z,62.9
2019-01-31T08:44:04.401Z,62.7
2019-01-31T08:45:04.363Z,61.8
2019-01-31T08:46:04.831Z,63.3
2019-01-31T08:47:04.703Z,63
2019-01-31T08:48:04.603Z,62.9
2019-01-31T08:49:04.501Z,63
2019-01-31T08:50:04.396Z,62.9
2019-01-31T08:51:04.312Z,61.6
2019-01-31T08:52:04.312Z,61
2019-01-31T08:53:04.207Z,61.1
2019-01-31T08:54:06.389Z,61.4
2019-01-31T08:55:06.296Z,61.8
2019-01-31T08:56:06.611Z,61.6
2019-01-31T08:57:06.512Z,61.6
2019-01-31T08:58:06.428Z,60.9
2019-01-31T08:59:06.335Z,60.2
2019-01-31T09:00:06.223Z,60.5
2019-01-31T09:01:06.158Z,61.5
2019-01-31T09:02:06.050Z,60.8
2019-01-31T09:03:05.936Z,60.8
2019-01-31T09:04:05.838Z,60.1
2019-01-31T09:05:05.766Z,61.3
2019-01-31T09:06:06.128Z,60.8
2019-01-31T09:07:06.030Z,59.3
2019-01-31T09:08:05.948Z,60.6
2019-01-31T09:09:05.835Z,61.5
2019-01-31T09:10:05.732Z,60.1
2019-01-31T09:11:05.628Z,59.4
2019-01-31T09:12:16.144Z,60.7
2019-01-31T09:13:16.031Z,60.3
2019-01-31T09:14:15.908Z,59.7
2019-01-31T09:15:15.788Z,59.8
2019-01-31T09:16:16.192Z,58.9
2019-01-31T09:17:16.108Z,58.8
2019-01-31T09:18:16.114Z,58.5
2019-01-31T09:19:16.028Z,58.7
2019-01-31T09:20:15.922Z,58.7
2019-01-31T09:21:15.883Z,59.2
2019-01-31T09:22:15.772Z,58.9
2019-01-31T09:23:15.711Z,58.7
2019-01-31T09:24:15.623Z,57.7
2019-01-31T09:25:15.536Z,57.7
2019-01-31T09:26:15.866Z,58
2019-01-31T09:27:15.761Z,57.8
2019-01-31T09:28:15.703Z,58
2019-01-31T09:29:15.586Z,58.6
2019-01-31T09:30:15.526Z,58.7
2019-01-31T09:31:15.410Z,58.3
2019-01-31T09:32:15.303Z,58.4
2019-01-31T09:33:15.188Z,56.2
2019-01-31T09:34:15.087Z,56.7
2019-01-31T09:35:14.958Z,57.6
2019-01-31T09:36:15.380Z,57.1
2019-01-31T09:37:15.404Z,57.5
2019-01-31T09:38:15.305Z,57.6
2019-01-31T09:39:15.208Z,57.7
2019-01-31T09:40:15.110Z,57.8
2019-01-31T09:41:15.010Z,57.6
2019-01-31T09:42:26.946Z,57.9
2019-01-31T09:43:26.876Z,57.8
2019-01-31T09:44:26.779Z,58.3
2019-01-31T09:45:26.691Z,57.6
2019-01-31T09:46:27.044Z,58.1
2019-01-31T09:47:26.954Z,57.8
2019-01-31T09:48:26.854Z,57.7
2019-01-31T09:49:26.767Z,58.6
2019-01-31T09:50:28.850Z,59
2019-01-31T09:51:28.756Z,59.1
2019-01-31T09:52:28.650Z,58.8
2019-01-31T09:53:28.538Z,59.1
2019-01-31T09:54:28.498Z,58.7
2019-01-31T09:55:28.458Z,59.1
2019-01-31T09:56:28.746Z,57.8
2019-01-31T09:57:28.658Z,58.1
2019-01-31T09:58:28.954Z,58
2019-01-31T09:59:28.896Z,58.7
2019-01-31T10:00:28.815Z,58.3
2019-01-31T10:01:28.701Z,57.7
2019-01-31T10:02:28.634Z,57.4
2019-01-31T10:03:28.548Z,57.6
2019-01-31T10:04:28.450Z,57.9
2019-01-31T10:05:28.462Z,58
2019-01-31T10:06:28.802Z,57.8
2019-01-31T10:07:28.717Z,57.5
2019-01-31T10:08:28.636Z,57.3
2019-01-31T10:09:28.547Z,56.6
2019-01-31T10:10:28.624Z,57
2019-01-31T10:11:28.877Z,57.2
2019-01-31T10:12:39.350Z,57.9
2019-01-31T10:13:39.518Z,57.7
2019-01-31T10:14:40.220Z,57.7
2019-01-31T10:15:40.398Z,57.8
2019-01-31T10:16:41.333Z,57.7
2019-01-31T10:17:41.552Z,58.7
2019-01-31T10:18:41.709Z,58.1
2019-01-31T10:19:41.975Z,58
2019-01-31T10:20:42.409Z,58.3
2019-01-31T10:21:42.644Z,57.5
2019-01-31T10:22:42.750Z,58.2
2019-01-31T10:23:43.295Z,58
2019-01-31T10:24:43.469Z,57.5
2019-01-31T10:25:43.414Z,57.8
2019-01-31T10:26:43.784Z,58.2
2019-01-31T10:27:43.690Z,58.1
2019-01-31T10:28:43.592Z,57.8
2019-01-31T10:29:43.474Z,56.7
2019-01-31T10:30:43.380Z,57.2
2019-01-31T10:31:43.302Z,57.4
2019-01-31T10:32:43.204Z,57.3
2019-01-31T10:33:43.389Z,57
2019-01-31T10:34:43.306Z,57
2019-01-31T10:35:43.196Z,57.6
2019-01-31T10:36:43.524Z,57.9
2019-01-31T10:37:43.428Z,57.7
2019-01-31T10:38:43.378Z,57
2019-01-31T10:39:43.262Z,57.4
2019-01-31T10:40:43.158Z,57.7
2019-01-31T10:41:43.032Z,56.9
2019-01-31T10:42:52.855Z,56.8
2019-01-31T10:43:52.762Z,56.7
2019-01-31T10:44:52.638Z,56.9
2019-01-31T10:45:52.521Z,57.1
2019-01-31T10:46:52.840Z,57.2
2019-01-31T10:47:52.761Z,56.1
2019-01-31T10:48:52.664Z,56.3
2019-01-31T10:49:52.546Z,57.4
2019-01-31T10:50:52.438Z,57
2019-01-31T10:51:52.310Z,58.1
2019-01-31T10:52:52.280Z,57.9
2019-01-31T10:53:52.201Z,58
2019-01-31T10:54:52.083Z,57.7
2019-01-31T10:55:51.984Z,57.4
2019-01-31T10:56:52.303Z,57.7
2019-01-31T10:57:52.183Z,57.9
2019-01-31T10:58:52.090Z,58.1
2019-01-31T10:59:51.996Z,57.6
2019-01-31T11:00:51.894Z,57.4
2019-01-31T11:01:51.776Z,57.8
2019-01-31T11:02:51.648Z,58.1
2019-01-31T11:03:51.546Z,58.2
2019-01-31T11:04:51.434Z,57.7
2019-01-31T11:05:51.328Z,54.9
2019-01-31T11:06:51.758Z,55.2
2019-01-31T11:07:51.681Z,55.5
2019-01-31T11:08:51.573Z,55.4
2019-01-31T11:09:51.480Z,55.3
2019-01-31T11:10:51.421Z,55.7
2019-01-31T11:11:51.323Z,55.3
2019-01-31T11:13:01.546Z,55.8
2019-01-31T11:14:01.443Z,56
2019-01-31T11:15:01.377Z,56
2019-01-31T11:16:01.256Z,55.3
2019-01-31T11:17:01.677Z,54.9
2019-01-31T11:18:01.566Z,55.3
2019-01-31T11:19:13.298Z,55.8
2019-01-31T11:20:13.230Z,56
2019-01-31T11:21:13.118Z,55.5
2019-01-31T11:22:13.008Z,55.7
2019-01-31T11:23:12.918Z,56
2019-01-31T11:24:12.806Z,55.9
2019-01-31T11:25:12.715Z,55.6
2019-01-31T11:26:12.618Z,55.5
2019-01-31T11:27:12.951Z,55.7
2019-01-31T11:28:12.868Z,55.8
2019-01-31T11:29:12.764Z,56
2019-01-31T11:30:12.666Z,55.7
2019-01-31T11:31:12.712Z,55.8
2019-01-31T11:32:12.612Z,55.5
2019-01-31T11:33:12.512Z,55.6
2019-01-31T11:34:12.411Z,55.2
2019-01-31T11:35:12.334Z,55.3
2019-01-31T11:36:12.224Z,55.4
2019-01-31T11:37:12.602Z,55.7
2019-01-31T11:38:12.500Z,56.2
2019-01-31T11:39:12.402Z,56.5
2019-01-31T11:40:12.289Z,56.7
2019-01-31T11:41:12.176Z,56.8
2019-01-31T11:42:12.111Z,56.3
2019-01-31T11:43:12.766Z,55.9
2019-01-31T11:44:12.673Z,56.8
2019-01-31T11:45:12.572Z,56.4
2019-01-31T11:46:12.462Z,56.1
2019-01-31T11:47:12.818Z,55.3
2019-01-31T11:48:12.727Z,55.6
2019-01-31T11:49:12.621Z,55.6
2019-01-31T11:50:12.510Z,56.1
2019-01-31T11:51:12.403Z,56.4
2019-01-31T11:52:12.452Z,55.4
2019-01-31T11:53:12.440Z,54.7
2019-01-31T11:54:12.405Z,53.9
2019-01-31T11:55:12.326Z,53.5
2019-01-31T11:56:12.247Z,53.7
2019-01-31T11:57:12.690Z,53.9
2019-01-31T11:58:12.632Z,53.7
2019-01-31T11:59:12.538Z,53.4
2019-01-31T12:00:12.441Z,52.6
2019-01-31T12:01:12.469Z,52.7
2019-01-31T12:02:12.357Z,53.1
2019-01-31T12:03:12.274Z,53.3
2019-01-31T12:04:12.231Z,53.5
2019-01-31T12:05:12.140Z,52.6
2019-01-31T12:06:12.022Z,51.4
2019-01-31T12:07:12.411Z,51.2
2019-01-31T12:08:12.333Z,51.7
2019-01-31T12:09:12.392Z,51.9
2019-01-31T12:10:12.337Z,51.3
2019-01-31T12:11:12.256Z,51.8
2019-01-31T12:12:12.207Z,51.6
2019-01-31T12:13:24.348Z,50.9
2019-01-31T12:14:24.274Z,50.4
2019-01-31T12:15:24.152Z,50.4
2019-01-31T12:16:24.076Z,50.7
2019-01-31T12:17:24.380Z,50.5
2019-01-31T12:18:24.397Z,49.9
2019-01-31T12:19:24.294Z,49.9
2019-01-31T12:20:24.204Z,49.7
2019-01-31T12:21:24.117Z,50.5
2019-01-31T12:22:24.111Z,49.7
2019-01-31T12:23:24.068Z,49.5
2019-01-31T12:24:23.961Z,49.1
2019-01-31T12:25:23.865Z,49.7
2019-01-31T12:26:23.757Z,49.7
2019-01-31T12:27:24.094Z,49.9
2019-01-31T12:28:23.973Z,50
2019-01-31T12:29:23.855Z,49.6
2019-01-31T12:30:23.819Z,49.8
2019-01-31T12:31:23.805Z,49.5
2019-01-31T12:32:23.711Z,50.1
2019-01-31T12:33:23.609Z,49.6
2019-01-31T12:34:23.707Z,49
2019-01-31T12:35:23.597Z,49.2
2019-01-31T12:36:23.513Z,49.1
2019-01-31T12:37:23.871Z,48.6
2019-01-31T12:38:23.758Z,48.4
2019-01-31T12:39:23.649Z,48.8
2019-01-31T12:40:23.548Z,47.8
2019-01-31T12:41:23.431Z,48.4
2019-01-31T12:42:23.444Z,48.3
2019-01-31T12:43:36.058Z,48
2019-01-31T12:44:35.953Z,48
2019-01-31T12:45:35.851Z,48
2019-01-31T12:46:35.779Z,47.4
2019-01-31T12:47:36.153Z,46.6
2019-01-31T12:48:36.035Z,47.6
2019-01-31T12:49:35.941Z,48.3
2019-01-31T12:50:35.837Z,47.5
2019-01-31T12:51:35.739Z,47.6
2019-01-31T12:52:35.645Z,47.1
2019-01-31T12:53:35.546Z,47.2
2019-01-31T12:54:35.451Z,46.5
2019-01-31T12:55:35.337Z,46.7
2019-01-31T12:56:35.215Z,46.9
2019-01-31T12:57:35.657Z,47
2019-01-31T12:58:35.539Z,46.9
2019-01-31T12:59:35.439Z,46.5
2019-01-31T13:00:35.330Z,47.2
2019-01-31T13:01:35.391Z,48.1
2019-01-31T13:02:35.295Z,48.1
2019-01-31T13:03:35.199Z,48.5
2019-01-31T13:04:35.077Z,48.4
2019-01-31T13:05:34.985Z,47.4
2019-01-31T13:06:34.861Z,46.9
2019-01-31T13:07:35.220Z,47.5
2019-01-31T13:08:35.144Z,46.6
2019-01-31T13:09:35.045Z,47
2019-01-31T13:10:34.959Z,47
2019-01-31T13:11:34.871Z,46.9
2019-01-31T13:12:34.761Z,47.2
2019-01-31T13:13:46.657Z,47.1
2019-01-31T13:14:46.557Z,47.3
2019-01-31T13:15:46.491Z,47.7
2019-01-31T13:16:46.431Z,47.5
2019-01-31T13:17:46.967Z,47.5
2019-01-31T13:18:46.872Z,47.2
2019-01-31T13:19:46.781Z,47.2
2019-01-31T13:20:46.667Z,47.3
2019-01-31T13:21:46.578Z,47.1
2019-01-31T13:22:46.470Z,46.8
2019-01-31T13:23:46.358Z,46.1
2019-01-31T13:24:46.269Z,45.2
2019-01-31T13:25:46.143Z,45.5
2019-01-31T13:26:46.043Z,45.5
2019-01-31T13:27:46.367Z,45.7
2019-01-31T13:28:46.239Z,45.8
2019-01-31T13:29:46.147Z,46.3
2019-01-31T13:30:46.055Z,46.6